Time;durP1;ratioP1;P1;durP2;ratioP2;P2;SDS_P1;SDS_P2;PMS_P1;PMS_P2;Temp;Humidity;BMP_temperature;BMP_pressure;BME280_temperature;BME280_humidity;BME280_pressure;Samples;Min_cycle;Max_cycle;Signal;HPM_P1;HPM_P2
2022/04/10 00:00:04;;;;;;;7.18;3.30;;;;;;;11.08;75.11;95834.13;5027811;28;20056;-61
2022/04/10 00:02:31;;;;;;;7.05;3.20;;;;;;;11.11;74.93;95825.00;5027186;28;20058;-61
2022/04/10 00:04:58;;;;;;;6.38;3.58;;;;;;;10.58;75.30;95790.00;5027778;28;20056;-73
2022/04/10 00:07:24;;;;;;;5.82;3.20;;;;;;;10.83;76.39;95827.91;5027695;28;20123;-72
2022/04/10 00:09:51;;;;;;;4.97;3.80;;;;;;;10.51;75.88;95787.25;5027298;28;20519;-59
2022/04/10 00:12:18;;;;;;;6.65;3.53;;;;;;;10.46;75.94;95771.03;5027914;28;20050;-56
2022/04/10 00:14:45;;;;;;;8.77;4.38;;;;;;;10.01;78.43;95760.84;5027289;28;20056;-67
2022/04/10 00:17:12;;;;;;;10.52;3.95;;;;;;;10.50;78.58;95798.72;5027076;28;20060;-56
2022/04/10 00:19:39;;;;;;;9.65;4.13;;;;;;;10.52;79.21;95801.88;5027134;28;20107;-58
2022/04/10 00:22:06;;;;;;;6.68;3.58;;;;;;;10.52;78.84;95791.59;5027077;28;20061;-70
2022/04/10 00:24:33;;;;;;;5.47;3.53;;;;;;;10.55;78.77;95817.69;5026994;28;20386;-70
2022/04/10 00:27:00;;;;;;;5.78;3.33;;;;;;;10.64;77.63;95813.31;5027154;28;20421;-60
2022/04/10 00:29:26;;;;;;;7.32;3.50;;;;;;;10.55;77.50;95839.84;5022069;28;20070;-57
2022/04/10 00:31:53;;;;;;;10.88;3.90;;;;;;;10.33;78.24;95836.34;5006741;28;20053;-73
2022/04/10 00:34:20;;;;;;;5.93;3.53;;;;;;;10.40;78.18;95833.53;5007728;28;20058;-72
2022/04/10 00:36:47;;;;;;;5.97;3.53;;;;;;;10.31;77.78;95829.59;5005299;28;20054;-71
2022/04/10 00:39:13;;;;;;;8.50;3.95;;;;;;;10.00;79.07;95809.06;5005976;28;20452;-71
2022/04/10 00:41:40;;;;;;;6.07;3.92;;;;;;;9.42;79.97;95734.03;5021827;28;20555;-58
2022/04/10 00:44:11;;;;;;;7.50;4.20;;;;;;;9.62;80.01;95784.97;5007126;28;20437;-59
2022/04/10 00:46:38;;;;;;;9.60;4.70;;;;;;;9.67;80.21;95773.53;5006843;28;20119;-61
2022/04/10 00:49:05;;;;;;;8.27;3.58;;;;;;;9.61;82.48;95835.91;5006403;28;20050;-72
2022/04/10 00:51:40;;;;;;;8.55;3.97;;;;;;;8.74;84.20;95748.16;5006738;28;20057;-72
2022/04/10 00:54:18;;;;;;;16.67;6.78;;;;;;;9.31;85.29;95827.16;5006743;28;20620;-57
2022/04/10 00:56:45;;;;;;;13.77;5.93;;;;;;;9.36;85.31;95826.78;5005207;28;20524;-72
2022/04/10 00:59:13;;;;;;;12.70;4.68;;;;;;;9.52;85.37;95829.97;5007168;28;20054;-58
2022/04/10 01:01:44;;;;;;;10.55;4.65;;;;;;;9.58;84.58;95828.41;5005258;28;20251;-72
2022/04/10 01:04:31;;;;;;;8.07;4.18;;;;;;;9.63;83.66;95821.69;5006518;28;20054;-60
2022/04/10 01:07:00;;;;;;;11.85;4.65;;;;;;;9.72;83.23;95882.94;5004556;28;20066;-71
2022/04/10 01:09:27;;;;;;;11.85;5.10;;;;;;;9.09;83.22;95728.88;5005199;28;20069;-58
2022/04/10 01:11:54;;;;;;;9.07;4.75;;;;;;;9.71;83.56;95818.56;5006385;28;20137;-71
2022/04/10 01:14:21;;;;;;;7.78;4.32;;;;;;;9.64;83.00;95813.00;5006255;28;20061;-59
2022/04/10 01:16:48;;;;;;;10.90;3.97;;;;;;;9.57;83.47;95832.38;5006013;28;20349;-73
2022/04/10 01:19:19;;;;;;;13.45;5.40;;;;;;;9.62;83.42;95826.44;5005301;28;20057;-58
2022/04/10 01:21:47;;;;;;;13.00;5.97;;;;;;;9.65;83.67;95820.13;5006183;28;20050;-73
2022/04/10 01:24:14;;;;;;;11.02;5.32;;;;;;;9.80;83.35;95818.94;5006336;28;20080;-72
2022/04/10 01:26:42;;;;;;;9.18;5.00;;;;;;;9.73;83.56;95799.59;5006095;28;20509;-72
2022/04/10 01:29:11;;;;;;;7.55;4.38;;;;;;;9.67;84.09;95781.84;5005659;28;20065;-59
2022/04/10 01:31:40;;;;;;;8.70;4.45;;;;;;;9.78;83.62;95824.09;5006149;28;20061;-61
2022/04/10 01:34:08;;;;;;;5.00;3.90;;;;;;;9.43;83.52;95768.78;5004450;28;20571;-60
2022/04/10 01:36:36;;;;;;;8.27;3.95;;;;;;;9.11;83.35;95718.22;5006019;28;20058;-72
2022/04/10 01:39:06;;;;;;;7.88;4.30;;;;;;;9.79;83.65;95809.06;5004585;28;20493;-71
2022/04/10 01:41:34;;;;;;;9.40;4.53;;;;;;;9.75;83.48;95819.34;5004517;28;20050;-72
2022/04/10 01:44:03;;;;;;;8.80;3.55;;;;;;;9.63;83.32;95811.44;5006131;28;20062;-71
2022/04/10 01:46:31;;;;;;;6.22;3.08;;;;;;;9.64;82.39;95796.41;5005403;28;20053;-59
2022/04/10 01:48:58;;;;;;;7.10;3.38;;;;;;;9.52;83.65;95796.00;5004008;28;20559;-73
2022/04/10 01:51:25;;;;;;;7.60;3.00;;;;;;;9.66;83.64;95815.41;5005429;28;20437;-59
2022/04/10 01:53:54;;;;;;;10.75;3.92;;;;;;;9.53;84.74;95812.22;5004336;28;20060;-73
2022/04/10 01:56:21;;;;;;;5.00;3.55;;;;;;;9.23;84.64;95751.78;5005429;28;20053;-72
2022/04/10 01:58:50;;;;;;;9.02;3.63;;;;;;;9.41;86.49;95804.31;5005430;28;20062;-73
2022/04/10 02:01:17;;;;;;;8.50;4.25;;;;;;;9.39;87.07;95816.94;5020694;28;20050;-71
2022/04/10 02:03:47;;;;;;;7.70;3.97;;;;;;;9.13;87.20;95760.06;5005337;28;20052;-72
2022/04/10 02:06:15;;;;;;;9.93;4.65;;;;;;;9.39;85.88;95801.13;5005300;28;20049;-58
2022/04/10 02:08:42;;;;;;;11.30;4.03;;;;;;;9.28;84.86;95789.28;5003719;28;20065;-72
2022/04/10 02:11:17;;;;;;;10.73;4.07;;;;;;;9.28;86.07;95805.84;5003530;28;20588;-73
2022/04/10 02:13:45;;;;;;;11.60;4.38;;;;;;;9.32;86.48;95806.66;5003722;28;20065;-71
2022/04/10 02:16:16;;;;;;;6.72;3.70;;;;;;;9.17;86.33;95788.47;5004697;28;20050;-71
2022/04/10 02:18:44;;;;;;;9.55;4.78;;;;;;;9.18;87.12;95801.13;5005195;28;20053;-69
2022/04/10 02:21:11;;;;;;;9.13;4.25;;;;;;;8.20;87.16;95640.72;5005231;28;20520;-59
2022/04/10 02:23:38;;;;;;;12.68;4.15;;;;;;;9.35;88.27;95805.88;5005267;28;20614;-71
2022/04/10 02:26:05;;;;;;;10.65;4.07;;;;;;;9.34;89.98;95793.25;5005046;28;20072;-71
2022/04/10 02:28:32;;;;;;;9.20;3.92;;;;;;;9.40;89.22;95786.16;5004672;28;20054;-69
2022/04/10 02:30:58;;;;;;;13.50;4.00;;;;;;;9.33;88.72;95791.66;5018753;28;20054;-70
2022/04/10 02:33:25;;;;;;;7.35;3.22;;;;;;;9.37;88.47;95780.63;5004626;28;20053;-60
2022/04/10 02:35:51;;;;;;;6.70;3.40;;;;;;;9.20;87.69;95737.97;5004643;28;20054;-57
2022/04/10 02:38:19;;;;;;;6.80;3.63;;;;;;;9.03;86.92;95705.59;5005493;28;20520;-69
2022/04/10 02:40:45;;;;;;;10.98;3.88;;;;;;;9.36;86.07;95757.72;5004516;28;20517;-57
2022/04/10 02:43:13;;;;;;;7.80;4.60;;;;;;;9.14;86.34;95722.97;5004462;28;20414;-69
2022/04/10 02:45:42;;;;;;;5.82;3.63;;;;;;;8.92;85.87;95696.50;5004397;28;20050;-69
2022/04/10 02:48:09;;;;;;;14.63;4.80;;;;;;;9.44;86.56;95778.63;5004221;28;20057;-58
2022/04/10 02:50:37;;;;;;;12.02;4.30;;;;;;;8.71;88.18;95732.38;5004903;28;20069;-58
2022/04/10 02:53:06;;;;;;;11.48;4.38;;;;;;;9.08;88.16;95786.09;5003475;28;20050;-60
2022/04/10 02:55:32;;;;;;;83.75;13.40;;;;;;;8.36;88.78;95699.91;5003331;28;20587;-69
2022/04/10 02:57:59;;;;;;;6.45;4.03;;;;;;;8.21;95.24;95791.22;5005168;28;20057;-70
2022/04/10 03:00:26;;;;;;;16.33;5.95;;;;;;;8.56;93.89;95791.44;5004471;28;20053;-56
2022/04/10 03:02:53;;;;;;;16.88;6.43;;;;;;;8.36;94.40;95737.75;5004481;28;20486;-58
2022/04/10 03:05:20;;;;;;;15.35;5.10;;;;;;;8.83;94.06;95812.06;5004453;28;20049;-70
2022/04/10 03:07:50;;;;;;;7.15;4.10;;;;;;;8.78;91.41;95787.56;5004323;28;20049;-69
2022/04/10 03:10:17;;;;;;;12.60;5.03;;;;;;;8.92;90.98;95806.94;5004446;28;20049;-69
2022/04/10 03:12:43;;;;;;;18.13;7.82;;;;;;;8.47;90.13;95733.84;5004421;28;20440;-57
2022/04/10 03:15:10;;;;;;;14.15;6.40;;;;;;;8.99;89.67;95810.50;5002715;28;20069;-70
2022/04/10 03:17:37;;;;;;;9.52;5.10;;;;;;;9.05;89.44;95799.91;5004675;28;20037;-56
2022/04/10 03:20:04;;;;;;;10.63;5.30;;;;;;;9.07;90.23;95800.31;4993796;28;20054;-70
2022/04/10 03:22:31;;;;;;;9.40;4.18;;;;;;;9.08;90.53;95791.63;5002892;28;20054;-57
2022/04/10 03:24:58;;;;;;;9.70;4.53;;;;;;;9.10;90.79;95788.47;5003286;28;20422;-70
2022/04/10 03:27:24;;;;;;;8.02;4.50;;;;;;;8.98;89.94;95780.53;5004111;28;20050;-71
2022/04/10 03:29:51;;;;;;;9.95;4.80;;;;;;;9.13;89.95;95782.16;5003426;28;20052;-67
2022/04/10 03:32:17;;;;;;;7.85;4.35;;;;;;;9.03;89.87;95783.72;5004242;28;20236;-57
2022/04/10 03:34:44;;;;;;;7.97;4.15;;;;;;;8.68;90.88;95722.06;5004539;28;20080;-56
2022/04/10 03:37:11;;;;;;;7.82;3.83;;;;;;;9.10;90.57;95766.38;5002549;28;20511;-70
2022/04/10 03:39:37;;;;;;;10.82;5.32;;;;;;;9.35;89.91;95778.25;5003461;28;20592;-58
2022/04/10 03:42:04;;;;;;;12.77;6.07;;;;;;;9.43;89.73;95784.56;5003368;28;20437;-71
2022/04/10 03:44:31;;;;;;;12.30;5.82;;;;;;;9.57;89.39;95779.84;5003635;28;20054;-71
2022/04/10 03:46:58;;;;;;;12.70;6.35;;;;;;;9.67;89.13;95795.66;5003588;28;20050;-60
2022/04/10 03:49:25;;;;;;;14.70;6.80;;;;;;;9.58;87.79;95781.41;5003949;28;20506;-70
2022/04/10 03:51:51;;;;;;;13.00;5.93;;;;;;;9.74;88.54;95790.09;5003908;28;20050;-69
2022/04/10 03:54:18;;;;;;;12.93;5.68;;;;;;;9.90;87.57;95796.03;5004244;28;20054;-57
2022/04/10 03:56:44;;;;;;;14.50;6.05;;;;;;;9.89;86.35;95769.56;5002354;28;20057;-57
2022/04/10 03:59:11;;;;;;;12.05;4.93;;;;;;;9.65;87.29;95742.72;5003924;28;20058;-56
2022/04/10 04:01:38;;;;;;;12.75;5.97;;;;;;;10.06;88.45;95801.94;5003834;28;20061;-70
2022/04/10 04:04:05;;;;;;;13.50;6.07;;;;;;;10.06;87.51;95790.88;5003986;28;20057;-69
2022/04/10 04:06:31;;;;;;;23.70;7.38;;;;;;;10.19;87.04;95778.25;5004080;28;20475;-70
2022/04/10 04:08:58;;;;;;;13.00;6.10;;;;;;;10.09;88.53;95790.13;5003473;28;20053;-71
2022/04/10 04:11:24;;;;;;;15.90;6.82;;;;;;;10.21;88.23;95786.91;5003442;28;20356;-57
2022/04/10 04:13:51;;;;;;;11.30;5.97;;;;;;;10.27;87.65;95779.81;5003636;28;20057;-70
2022/04/10 04:16:18;;;;;;;8.65;5.13;;;;;;;9.88;86.12;95687.00;5001729;28;20623;-56
2022/04/10 04:18:45;;;;;;;8.75;4.32;;;;;;;9.81;84.47;95740.34;5002200;28;20351;-70
2022/04/10 04:21:11;;;;;;;8.88;4.20;;;;;;;9.80;83.53;95726.91;5003490;28;20057;-57
2022/04/10 04:23:38;;;;;;;7.70;3.95;;;;;;;10.22;80.56;95782.19;5002131;28;20060;-56
2022/04/10 04:26:05;;;;;;;9.70;4.22;;;;;;;10.13;81.23;95793.66;5003665;28;20058;-70
2022/04/10 04:28:35;;;;;;;10.23;4.10;;;;;;;9.86;81.37;95797.22;5002145;28;20050;-70
2022/04/10 04:31:02;;;;;;;9.40;5.13;;;;;;;9.73;82.58;95776.69;5003312;28;20054;-68
2022/04/10 04:33:28;;;;;;;10.98;5.60;;;;;;;9.74;84.38;95790.09;5002190;28;20058;-57
2022/04/10 04:35:55;;;;;;;11.27;5.57;;;;;;;9.20;85.24;95782.16;5004077;28;20088;-58
2022/04/10 04:38:22;;;;;;;10.02;5.28;;;;;;;9.56;86.95;95800.38;5005498;28;20054;-57
2022/04/10 04:40:48;;;;;;;15.93;5.80;;;;;;;9.64;86.78;95818.53;5006996;28;20496;-58
2022/04/10 04:43:15;;;;;;;9.40;4.95;;;;;;;9.81;86.22;95826.06;5005849;28;20065;-57
2022/04/10 04:45:41;;;;;;;10.85;5.72;;;;;;;9.38;85.04;95743.50;5005512;28;20049;-69
2022/04/10 04:48:08;;;;;;;9.40;4.95;;;;;;;9.96;85.25;95830.41;5006831;28;20172;-69
2022/04/10 04:50:35;;;;;;;12.68;5.65;;;;;;;9.46;83.94;95734.03;5005475;28;20061;-60
2022/04/10 04:53:01;;;;;;;11.43;5.90;;;;;;;10.10;84.15;95819.34;5006925;28;20046;-70
2022/04/10 04:55:28;;;;;;;12.25;5.28;;;;;;;10.26;84.23;95827.22;5004995;28;20054;-69
2022/04/10 04:57:55;;;;;;;8.57;5.70;;;;;;;9.93;86.66;95830.38;5006942;28;20050;-58
2022/04/10 05:00:22;;;;;;;13.80;5.55;;;;;;;9.98;85.70;95800.38;5006872;28;20141;-57
2022/04/10 05:02:48;;;;;;;14.07;6.30;;;;;;;10.45;84.63;95841.44;5006882;28;20049;-69
2022/04/10 05:05:15;;;;;;;25.60;11.88;;;;;;;10.21;83.61;95792.44;5004889;28;20505;-56
2022/04/10 05:07:42;;;;;;;15.77;8.25;;;;;;;10.83;82.69;95844.53;5004617;28;20049;-70
2022/04/10 05:10:09;;;;;;;13.32;6.80;;;;;;;10.81;82.79;95802.56;5005987;28;20085;-71
2022/04/10 05:12:35;;;;;;;22.60;12.95;;;;;;;11.14;81.84;95826.97;5006491;28;20493;-70
2022/04/10 05:15:04;;;;;;;28.02;14.27;;;;;;;10.70;80.89;95761.84;5004717;28;20092;-68
2022/04/10 05:17:31;;;;;;;25.48;13.43;;;;;;;11.36;81.17;95839.53;5004717;28;20053;-71
2022/04/10 05:19:57;;;;;;;21.95;10.35;;;;;;;11.54;80.58;95823.59;5006315;28;20065;-69
2022/04/10 05:22:24;;;;;;;18.73;10.07;;;;;;;11.31;80.49;95787.28;5006489;28;20073;-57
2022/04/10 05:24:56;;;;;;;25.10;14.50;;;;;;;11.22;80.92;95806.34;5006234;28;20058;-70
2022/04/10 05:27:22;;;;;;;19.42;9.93;;;;;;;11.31;82.08;95837.16;5006123;28;20784;-57
2022/04/10 05:29:49;;;;;;;15.23;6.50;;;;;;;10.78;81.57;95709.97;5012622;28;20567;-57
2022/04/10 05:32:16;;;;;;;21.27;10.13;;;;;;;11.53;80.97;95769.28;5024379;28;20076;-71
2022/04/10 05:34:43;;;;;;;16.05;8.55;;;;;;;11.39;84.32;95833.16;5025474;28;20061;-70
2022/04/10 05:37:10;;;;;;;17.45;8.95;;;;;;;11.92;82.65;95834.41;5024039;28;20432;-70
2022/04/10 05:39:39;;;;;;;14.43;8.32;;;;;;;11.58;80.17;95752.22;5025430;28;20049;-58
2022/04/10 05:42:07;;;;;;;13.68;9.68;;;;;;;12.19;79.92;95820.69;5025202;28;20049;-59
2022/04/10 05:44:34;;;;;;;12.70;8.20;;;;;;;12.36;79.40;95814.19;5025519;28;20053;-70
2022/04/10 05:47:02;;;;;;;13.45;8.13;;;;;;;12.58;79.73;95810.03;5023752;28;20103;-59
2022/04/10 05:49:28;;;;;;;11.73;5.95;;;;;;;12.83;79.42;95810.53;5025010;28;20045;-73
2022/04/10 05:51:55;;;;;;;15.25;7.30;;;;;;;13.16;77.84;95812.53;5025368;28;20061;-70
2022/04/10 05:54:22;;;;;;;9.15;5.88;;;;;;;13.29;76.93;95815.53;5025840;28;20058;-58
2022/04/10 05:56:49;;;;;;;13.48;6.75;;;;;;;12.99;76.72;95746.00;5025631;28;20092;-58
2022/04/10 05:59:15;;;;;;;17.50;8.50;;;;;;;13.76;75.64;95824.81;5024389;28;20065;-73
2022/04/10 06:01:42;;;;;;;17.58;9.90;;;;;;;13.84;74.59;95829.06;5023941;28;20053;-72
2022/04/10 06:04:09;;;;;;;16.23;9.70;;;;;;;14.04;74.47;95899.53;5025378;28;20053;-70
2022/04/10 06:06:35;;;;;;;20.75;8.75;;;;;;;14.25;73.59;95843.53;5023405;28;20049;-72
2022/04/10 06:09:02;;;;;;;15.68;6.78;;;;;;;14.52;72.71;95847.06;5024920;28;20057;-61
2022/04/10 06:11:29;;;;;;;12.82;6.38;;;;;;;14.61;71.48;95777.63;5024925;28;20053;-57
2022/04/10 06:13:55;;;;;;;20.42;8.90;;;;;;;15.32;69.90;95811.22;5025390;28;20054;-60
2022/04/10 06:16:22;;;;;;;16.58;7.30;;;;;;;15.82;68.25;95817.31;5024870;28;20060;-57
2022/04/10 06:18:49;;;;;;;10.88;7.90;;;;;;;15.91;68.17;95811.94;5023193;28;20487;-71
2022/04/10 06:21:15;;;;;;;16.13;7.90;;;;;;;15.95;66.40;95753.97;5024950;28;20045;-72
2022/04/10 06:23:42;;;;;;;13.88;6.20;;;;;;;16.26;65.13;95751.59;5024657;28;20053;-71
2022/04/10 06:26:08;;;;;;;15.40;7.18;;;;;;;16.55;64.17;95775.59;5024509;28;20049;-72
2022/04/10 06:28:35;;;;;;;20.20;8.52;;;;;;;16.58;64.06;95780.31;5024569;28;20061;-58
2022/04/10 06:31:02;;;;;;;17.38;8.23;;;;;;;16.33;66.35;95774.56;5019676;28;20057;-70
2022/04/10 06:33:29;;;;;;;21.02;7.93;;;;;;;16.41;65.86;95781.53;5003538;28;20049;-58
2022/04/10 06:35:55;;;;;;;12.52;7.43;;;;;;;16.49;66.70;95822.09;5003517;28;20076;-59
2022/04/10 06:38:22;;;;;;;23.70;12.98;;;;;;;16.76;65.52;95826.56;5003462;28;20468;-57
2022/04/10 06:40:51;;;;;;;17.00;7.13;;;;;;;16.46;65.08;95817.38;5003107;28;20058;-70
2022/04/10 06:43:20;;;;;;;17.88;6.40;;;;;;;14.98;65.79;95654.59;5002847;28;20061;-71
2022/04/10 06:45:47;;;;;;;18.58;8.48;;;;;;;16.24;65.55;95793.94;5004769;28;20054;-71
2022/04/10 06:48:15;;;;;;;12.60;6.07;;;;;;;16.53;64.63;95794.81;5004656;28;20049;-58
2022/04/10 06:50:42;;;;;;;16.00;7.20;;;;;;;16.19;67.48;95791.69;5004381;28;20054;-58
2022/04/10 06:53:09;;;;;;;15.82;6.07;;;;;;;16.28;66.94;95800.22;5004543;28;20054;-70
2022/04/10 06:55:36;;;;;;;16.17;6.47;;;;;;;16.49;65.55;95788.53;5003204;28;20061;-70
2022/04/10 06:58:03;;;;;;;10.15;5.78;;;;;;;16.22;66.33;95774.03;5003177;28;20058;-57
2022/04/10 07:00:31;;;;;;;12.32;5.80;;;;;;;16.13;67.67;95775.88;5001687;28;20053;-71
2022/04/10 07:03:01;;;;;;;9.65;5.68;;;;;;;16.13;67.52;95781.47;5004256;28;20098;-72
2022/04/10 07:05:28;;;;;;;15.90;7.20;;;;;;;16.63;66.15;95786.59;5004276;28;20060;-71
2022/04/10 07:07:55;;;;;;;8.82;5.22;;;;;;;16.67;65.06;95792.88;5004681;28;20515;-61
2022/04/10 07:10:22;;;;;;;12.07;6.07;;;;;;;16.74;64.68;95731.94;5004166;28;20073;-72
2022/04/10 07:12:50;;;;;;;11.98;5.30;;;;;;;16.94;63.64;95720.59;5004975;28;20045;-60
2022/04/10 07:15:20;;;;;;;9.82;5.32;;;;;;;17.55;63.27;95813.56;5004725;28;20054;-57
2022/04/10 07:17:55;;;;;;;15.38;5.07;;;;;;;17.64;62.94;95805.31;5003088;28;20046;-72
2022/04/10 07:20:22;;;;;;;10.10;5.57;;;;;;;17.54;62.37;95772.81;5003711;28;20886;-57
2022/04/10 07:25:34;;;;;;;17.05;5.60;;;;;;;17.80;62.00;95819.19;5003725;28;20053;-71
2022/04/10 07:28:01;;;;;;;9.20;4.70;;;;;;;17.71;62.05;95821.88;5004382;28;20062;-71
2022/04/10 07:30:29;;;;;;;15.90;5.55;;;;;;;17.20;62.99;95797.81;5015115;28;20057;-72
2022/04/10 07:32:57;;;;;;;13.13;5.68;;;;;;;17.57;62.24;95816.72;5023683;28;20049;-71
2022/04/10 07:35:27;;;;;;;12.85;6.00;;;;;;;16.55;65.45;95752.44;5023278;28;20508;-57
2022/04/10 07:37:54;;;;;;;12.15;5.63;;;;;;;16.91;65.56;95805.41;5022079;28;20049;-70
2022/04/10 07:40:21;;;;;;;15.10;5.80;;;;;;;16.95;66.64;95809.66;5022934;28;20425;-57
2022/04/10 07:42:47;;;;;;;14.95;6.13;;;;;;;16.29;68.04;95751.53;5021387;28;20097;-57
2022/04/10 07:47:25;;;;;;;16.52;6.22;;;;;;;14.89;72.29;95652.38;5022257;28;20064;-58
2022/04/10 07:48:02;;;;;;;15.35;5.75;;;;;;;15.80;72.97;95774.28;5023578;28;20432;-70
2022/04/10 07:50:29;;;;;;;11.77;6.18;;;;;;;15.29;75.29;95784.19;5022891;28;20050;-57
2022/04/10 07:52:55;;;;;;;11.35;5.32;;;;;;;15.26;74.84;95784.25;5023446;28;20487;-68
2022/04/10 07:55:23;;;;;;;12.15;6.18;;;;;;;15.40;75.24;95773.63;5022934;28;20893;-70
2022/04/10 07:57:49;;;;;;;16.23;6.18;;;;;;;15.58;74.03;95785.19;4676568;28;9999936;-58
2022/04/10 08:00:17;;;;;;;14.05;5.65;;;;;;;16.10;71.03;95794.31;5023472;28;20593;-56
2022/04/10 08:02:48;;;;;;;11.40;5.32;;;;;;;16.72;68.51;95811.91;5023579;28;20080;-70
2022/04/10 08:05:19;;;;;;;8.10;5.00;;;;;;;16.82;66.90;95808.06;5021954;28;20060;-62
2022/04/10 08:07:49;;;;;;;11.90;5.63;;;;;;;16.06;69.11;95765.66;5023236;28;20551;-56
2022/04/10 08:10:16;;;;;;;13.00;6.05;;;;;;;16.38;69.46;95739.69;5023221;28;20053;-72
2022/04/10 08:12:44;;;;;;;11.65;5.20;;;;;;;16.98;67.75;95791.19;5024968;28;20056;-71
2022/04/10 08:15:11;;;;;;;9.57;5.65;;;;;;;17.58;65.17;95756.66;5026727;28;20460;-57
2022/04/10 08:17:38;;;;;;;14.55;6.13;;;;;;;18.56;62.85;95792.72;5027315;28;20053;-72
2022/04/10 08:20:07;;;;;;;12.93;6.55;;;;;;;18.51;60.90;95773.66;5027582;28;20627;-58
2022/04/10 08:22:36;;;;;;;13.90;5.38;;;;;;;18.59;58.58;95796.66;5025311;28;20599;-58
2022/04/10 08:25:09;;;;;;;10.25;5.28;;;;;;;18.69;57.09;95801.09;5026977;28;20053;-72
2022/04/10 08:27:37;;;;;;;8.27;4.05;;;;;;;17.30;57.41;95799.47;5027295;28;20057;-72
2022/04/10 08:30:05;;;;;;;11.85;5.20;;;;;;;17.59;58.04;95724.66;5017824;28;20073;-57
2022/04/10 08:32:42;;;;;;;9.48;5.13;;;;;;;16.01;56.58;95444.97;5005455;28;20061;-73
2022/04/10 08:35:11;;;;;;;14.00;5.35;;;;;;;18.11;55.95;95727.75;5006922;28;20065;-57
2022/04/10 08:37:38;;;;;;;7.85;5.03;;;;;;;18.27;53.19;95766.84;5007351;28;20058;-72
2022/04/10 08:40:06;;;;;;;9.02;5.03;;;;;;;17.30;54.66;95732.31;5006900;28;20073;-70
2022/04/10 08:42:33;;;;;;;12.55;4.93;;;;;;;17.20;55.00;95753.03;5007263;28;20062;-70
2022/04/10 08:44:59;;;;;;;8.43;5.32;;;;;;;16.84;56.21;95741.25;5007030;28;20061;-70
2022/04/10 08:47:29;;;;;;;8.77;5.57;;;;;;;17.63;54.90;95776.50;5006928;28;20456;-58
2022/04/10 08:49:57;;;;;;;9.82;5.28;;;;;;;17.51;54.71;95784.91;5005535;28;20533;-70
2022/04/10 08:52:23;;;;;;;10.05;5.50;;;;;;;17.21;54.52;95726.59;5005460;28;20065;-70
2022/04/10 08:54:51;;;;;;;7.65;5.10;;;;;;;16.85;55.25;95776.41;5007181;28;20441;-59
2022/04/10 08:57:18;;;;;;;6.47;5.80;;;;;;;16.94;55.16;95782.13;5006665;28;20062;-71
2022/04/10 08:59:45;;;;;;;8.40;5.97;;;;;;;16.50;54.83;95731.41;5006579;28;20053;-59
2022/04/10 09:02:13;;;;;;;5.72;4.70;;;;;;;16.01;55.45;95707.53;5007011;28;20518;-58
2022/04/10 09:04:40;;;;;;;10.40;5.35;;;;;;;16.61;55.20;95776.63;5005462;28;20583;-71
2022/04/10 09:07:09;;;;;;;8.13;5.55;;;;;;;16.94;54.79;95790.53;5006367;28;20054;-68
2022/04/10 09:09:40;;;;;;;13.10;7.07;;;;;;;17.23;54.07;95785.72;5007030;28;20441;-72
2022/04/10 09:12:07;;;;;;;8.68;6.97;;;;;;;16.68;55.09;95780.47;5006087;28;20472;-71
2022/04/10 09:14:36;;;;;;;11.32;6.97;;;;;;;16.55;55.98;95792.38;5006117;28;20054;-58
2022/04/10 09:17:12;;;;;;;12.00;7.95;;;;;;;16.50;56.45;95806.88;5004870;28;20045;-69
2022/04/10 09:19:43;;;;;;;8.65;5.85;;;;;;;15.99;56.67;95804.16;5004785;28;20123;-73
2022/04/10 09:22:27;;;;;;;12.35;7.80;;;;;;;15.83;57.33;95796.56;5006239;28;20508;-58
2022/04/10 09:25:16;;;;;;;11.63;7.57;;;;;;;15.89;57.77;95782.84;5004827;28;20069;-62
2022/04/10 09:27:47;;;;;;;12.02;8.05;;;;;;;15.67;58.65;95798.53;5005903;28;20049;-71
2022/04/10 09:30:19;;;;;;;8.38;5.90;;;;;;;14.99;61.00;95815.09;5014368;28;20484;-72
2022/04/10 09:32:47;;;;;;;10.40;6.68;;;;;;;15.06;61.95;95820.56;5025839;28;20460;-58
2022/04/10 09:35:16;;;;;;;15.77;9.02;;;;;;;14.28;68.69;95798.13;5023867;28;20061;-72
2022/04/10 09:37:51;;;;;;;12.43;7.80;;;;;;;13.31;75.52;95841.72;5024312;28;20062;-60
2022/04/10 09:40:31;;;;;;;12.82;8.27;;;;;;;12.44;80.99;95815.69;5025771;28;20103;-58
2022/04/10 09:43:04;;;;;;;12.48;8.75;;;;;;;12.15;85.60;95865.13;5024216;28;20560;-59
2022/04/10 09:45:39;;;;;;;11.98;8.50;;;;;;;11.12;93.57;95848.75;5025649;28;20063;-70
2022/04/10 09:48:31;;;;;;;15.82;9.38;;;;;;;10.33;98.78;95821.69;5025711;28;20060;-69
2022/04/10 09:51:02;;;;;;;11.50;8.07;;;;;;;10.40;100.00;95866.00;5025377;28;20056;-71
2022/04/10 09:53:30;;;;;;;18.90;10.40;;;;;;;10.11;100.00;95843.09;5023901;28;20045;-71
2022/04/10 09:56:04;;;;;;;20.50;9.95;;;;;;;10.01;100.00;95871.50;5025583;28;20054;-60
2022/04/10 09:58:33;;;;;;;24.10;11.77;;;;;;;10.17;100.00;95871.94;5025820;28;20097;-60
2022/04/10 10:01:00;;;;;;;26.23;14.90;;;;;;;10.19;100.00;95858.50;5025278;28;20057;-62
2022/04/10 10:03:36;;;;;;;26.98;14.13;;;;;;;10.04;100.00;95843.03;5025652;28;20124;-72
2022/04/10 10:06:07;;;;;;;22.90;12.82;;;;;;;10.52;100.00;95869.13;5025045;28;20564;-58
2022/04/10 10:08:34;;;;;;;24.20;14.63;;;;;;;10.94;100.00;95850.81;5025002;28;20060;-72
2022/04/10 10:11:01;;;;;;;23.77;13.93;;;;;;;11.05;100.00;95802.44;5024930;28;20057;-71
2022/04/10 10:13:29;;;;;;;32.08;19.13;;;;;;;11.94;100.00;95845.09;5025587;28;20056;-59
2022/04/10 10:15:56;;;;;;;22.83;13.15;;;;;;;12.33;100.00;95834.44;5025338;28;20132;-59
2022/04/10 10:18:24;;;;;;;13.90;9.85;;;;;;;12.09;100.00;95799.41;5025443;28;20124;-58
2022/04/10 10:20:51;;;;;;;24.35;13.48;;;;;;;12.65;100.00;95859.13;5024622;28;20057;-71
2022/04/10 10:23:20;;;;;;;19.48;11.85;;;;;;;12.98;99.21;95850.84;5024964;28;20153;-58
2022/04/10 10:26:14;;;;;;;14.02;10.10;;;;;;;12.84;97.84;95856.56;5024218;28;20538;-72
2022/04/10 10:29:20;;;;;;;13.38;8.50;;;;;;;11.92;99.47;95722.63;5022999;28;20061;-64
2022/04/10 10:32:17;;;;;;;11.90;8.10;;;;;;;13.76;94.74;95845.06;5004964;28;20116;-59
2022/04/10 10:34:48;;;;;;;10.43;6.97;;;;;;;14.07;87.24;95829.09;5004643;28;20046;-59
2022/04/10 10:37:15;;;;;;;11.10;7.43;;;;;;;14.23;84.21;95787.44;5003470;28;20050;-60
2022/04/10 10:39:45;;;;;;;7.43;5.63;;;;;;;15.07;80.86;95833.28;5004516;28;20065;-71
2022/04/10 10:42:12;;;;;;;7.50;5.50;;;;;;;15.81;81.88;95831.69;5004766;28;20054;-58
2022/04/10 10:44:41;;;;;;;7.13;6.20;;;;;;;15.31;73.24;95804.09;5004476;28;20060;-60
2022/04/10 10:47:26;;;;;;;8.20;5.53;;;;;;;15.88;73.37;95814.78;5002787;28;20460;-71
2022/04/10 10:49:54;;;;;;;4.90;4.15;;;;;;;15.13;70.08;95825.97;5004361;28;20069;-71
2022/04/10 10:52:21;;;;;;;11.15;7.45;;;;;;;15.30;72.84;95835.22;5004782;28;20061;-60
2022/04/10 10:54:56;;;;;;;5.78;4.38;;;;;;;16.30;71.89;95817.34;5003152;28;20056;-71
2022/04/10 10:57:42;;;;;;;6.18;4.82;;;;;;;16.89;65.88;95805.06;5004256;28;20069;-71
2022/04/10 11:00:17;;;;;;;5.28;4.78;;;;;;;17.09;71.69;95770.09;5004264;28;20065;-59
2022/04/10 11:02:53;;;;;;;5.63;5.13;;;;;;;17.14;66.56;95793.94;5004376;28;20081;-58
2022/04/10 11:05:24;;;;;;;5.03;4.30;;;;;;;17.22;61.05;95796.13;5003738;28;20049;-59
2022/04/10 11:08:03;;;;;;;6.32;5.18;;;;;;;17.18;65.99;95766.66;5004510;28;20057;-58
2022/04/10 11:10:32;;;;;;;5.35;4.03;;;;;;;17.54;65.81;95778.41;5004346;28;20050;-71
2022/04/10 11:13:02;;;;;;;5.45;4.38;;;;;;;16.93;60.02;95769.41;5004850;28;20546;-58
2022/04/10 11:15:49;;;;;;;6.03;4.13;;;;;;;16.88;63.10;95764.34;5002965;28;20422;-69
2022/04/10 11:18:35;;;;;;;4.05;3.65;;;;;;;16.10;67.30;95710.50;5004491;28;20058;-72
2022/04/10 11:21:15;;;;;;;5.80;4.55;;;;;;;16.42;63.09;95710.41;5003789;28;20111;-72
2022/04/10 11:23:52;;;;;;;5.90;4.03;;;;;;;16.69;65.64;95740.09;5004059;28;20061;-71
2022/04/10 11:26:19;;;;;;;4.65;3.70;;;;;;;16.66;67.05;95741.75;5003838;28;20058;-72
2022/04/10 11:29:06;;;;;;;5.95;5.22;;;;;;;16.75;64.56;95721.56;5004370;28;20133;-72
2022/04/10 11:31:37;;;;;;;11.77;7.53;;;;;;;16.57;63.69;95720.03;5002952;28;20058;-60
2022/04/10 11:34:14;;;;;;;4.90;4.32;;;;;;;16.39;64.14;95721.72;5004212;28;20595;-57
2022/04/10 11:36:52;;;;;;;5.13;4.47;;;;;;;16.29;63.14;95726.38;5002504;28;20527;-72
2022/04/10 11:39:29;;;;;;;3.95;3.63;;;;;;;16.17;63.35;95729.09;5003952;28;20464;-57